Time;durP1;ratioP1;P1;durP2;ratioP2;P2;SDS_P1;SDS_P2;PMS_P1;PMS_P2;Temp;Humidity;BMP_temperature;BMP_pressure;BME280_temperature;BME280_humidity;BME280_pressure;Samples;Min_cycle;Max_cycle;Signal;HPM_P1;HPM_P2
2022/05/28 00:01:35;;;;;;;0.20;0.20;;;17.10;83.00;;;;;;6238876;23;20341;-84
2022/05/28 00:04:04;;;;;;;0.40;0.20;;;17.00;84.10;;;;;;6236858;23;20010;-84
2022/05/28 00:06:31;;;;;;;0.25;0.25;;;17.00;85.20;;;;;;6237358;23;20019;-83
2022/05/28 00:08:58;;;;;;;2.45;0.50;;;17.00;85.30;;;;;;6237268;23;20058;-82
2022/05/28 00:11:28;;;;;;;0.30;0.22;;;17.00;85.20;;;;;;6237090;23;20008;-84
2022/05/28 00:13:54;;;;;;;0.82;0.20;;;17.00;83.50;;;;;;6238113;23;20058;-81
2022/05/28 00:16:20;;;;;;;0.50;0.38;;;16.90;84.00;;;;;;6234924;23;20433;-81
2022/05/28 00:18:47;;;;;;;0.70;0.30;;;16.90;80.90;;;;;;6238420;23;20425;-82
2022/05/28 00:21:14;;;;;;;1.90;0.20;;;16.90;82.80;;;;;;6236385;23;20008;-83
2022/05/28 00:23:41;;;;;;;4.22;0.30;;;16.90;83.60;;;;;;6232617;23;20012;-83
2022/05/28 00:26:07;;;;;;;2.50;0.43;;;17.00;81.60;;;;;;6221074;23;20029;-83
2022/05/28 00:28:33;;;;;;;0.68;0.40;;;17.00;83.00;;;;;;6209418;23;20013;-81
2022/05/28 00:31:00;;;;;;;0.50;0.20;;;17.10;80.50;;;;;;6207337;23;20011;-82
2022/05/28 00:33:27;;;;;;;1.20;0.40;;;17.10;80.60;;;;;;6208162;23;20012;-85
2022/05/28 00:35:53;;;;;;;1.55;0.40;;;17.00;82.30;;;;;;6207521;23;19996;-83
2022/05/28 00:38:19;;;;;;;0.50;0.35;;;17.00;82.00;;;;;;6182588;23;20346;-84
2022/05/28 00:40:47;;;;;;;0.77;0.20;;;17.00;79.90;;;;;;6207385;23;20497;-82
2022/05/28 00:43:13;;;;;;;0.80;0.20;;;17.00;79.80;;;;;;6207265;23;20011;-82
2022/05/28 00:45:39;;;;;;;6.18;0.55;;;17.00;79.60;;;;;;6207504;23;20028;-82
2022/05/28 00:48:06;;;;;;;1.27;0.28;;;16.90;81.00;;;;;;6207207;23;20020;-82
2022/05/28 00:50:34;;;;;;;0.60;0.28;;;17.00;82.00;;;;;;6206511;23;20104;-82
2022/05/28 00:53:01;;;;;;;0.20;0.20;;;16.90;81.00;;;;;;6207119;23;20008;-82
2022/05/28 00:55:26;;;;;;;1.98;0.40;;;16.70;81.40;;;;;;6207426;23;20012;-83
2022/05/28 00:57:52;;;;;;;0.68;0.30;;;16.70;81.60;;;;;;6207652;23;20005;-82
2022/05/28 01:00:20;;;;;;;0.20;0.20;;;16.60;80.60;;;;;;6204439;23;20080;-82
2022/05/28 01:02:50;;;;;;;1.42;0.28;;;16.60;81.00;;;;;;6206709;23;20005;-81
2022/05/28 01:05:28;;;;;;;0.75;0.40;;;16.60;81.80;;;;;;6206592;23;20088;-81
2022/05/28 01:08:11;;;;;;;0.25;0.25;;;16.60;81.80;;;;;;6206485;23;20016;-81
2022/05/28 01:10:55;;;;;;;1.60;0.30;;;16.60;80.70;;;;;;6205195;23;20448;-81
2022/05/28 01:13:30;;;;;;;0.57;0.30;;;16.60;81.70;;;;;;6205316;23;20143;-82
2022/05/28 01:16:10;;;;;;;0.93;0.40;;;16.60;82.20;;;;;;6203689;23;20035;-83
2022/05/28 01:18:42;;;;;;;1.40;0.40;;;16.60;82.20;;;;;;6208008;23;20604;-83
2022/05/28 01:21:10;;;;;;;;;;;16.60;82.80;;;;;;6208146;23;20304;-81
2022/05/28 01:23:49;;;;;;;2.13;0.40;;;16.60;85.00;;;;;;6205573;23;19979;-81
2022/05/28 01:26:45;;;;;;;1.05;0.20;;;16.60;86.80;;;;;;6220316;23;20592;-80
2022/05/28 01:29:16;;;;;;;1.17;0.30;;;16.50;83.70;;;;;;6235890;23;20028;-81
2022/05/28 01:31:43;;;;;;;1.50;0.38;;;16.50;86.20;;;;;;6237163;23;20464;-81
2022/05/28 01:34:09;;;;;;;1.52;0.30;;;16.50;83.70;;;;;;6235748;23;20004;-80
2022/05/28 01:36:36;;;;;;;1.85;0.50;;;16.50;82.70;;;;;;6238656;23;20008;-82
2022/05/28 01:39:05;;;;;;;0.40;0.40;;;16.40;83.30;;;;;;6232294;23;20004;-80
2022/05/28 01:41:33;;;;;;;0.45;0.30;;;16.40;83.50;;;;;;6237634;23;19996;-81
2022/05/28 01:44:00;;;;;;;1.02;0.25;;;16.30;84.10;;;;;;6238616;23;20032;-83
2022/05/28 01:46:27;;;;;;;0.40;0.20;;;16.20;84.70;;;;;;6237958;23;20019;-82
2022/05/28 01:48:55;;;;;;;0.80;0.40;;;16.10;85.70;;;;;;6236900;23;20054;-83
2022/05/28 01:51:27;;;;;;;0.35;0.30;;;16.00;86.70;;;;;;6236878;23;20015;-83
2022/05/28 01:54:11;;;;;;;4.70;1.02;;;16.00;87.10;;;;;;6236777;23;20097;-83
2022/05/28 01:56:43;;;;;;;1.75;0.40;;;16.00;87.20;;;;;;6238152;23;20000;-86
2022/05/28 01:59:19;;;;;;;2.15;0.30;;;16.00;86.60;;;;;;6235433;23;20010;-85
2022/05/28 02:01:45;;;;;;;1.52;0.40;;;15.90;87.00;;;;;;6236458;23;20004;-80
2022/05/28 02:04:12;;;;;;;0.47;0.30;;;15.90;87.40;;;;;;6233910;23;20015;-82
2022/05/28 02:06:39;;;;;;;1.20;0.38;;;15.90;87.50;;;;;;6235627;23;20404;-82
2022/05/28 02:09:08;;;;;;;0.90;0.30;;;15.80;88.30;;;;;;6236961;23;20000;-83
2022/05/28 02:11:53;;;;;;;2.42;0.50;;;15.90;88.80;;;;;;6233341;23;20039;-82
2022/05/28 02:14:36;;;;;;;0.30;0.30;;;15.80;89.00;;;;;;6236595;23;20468;-83
2022/05/28 02:17:14;;;;;;;0.43;0.20;;;15.80;89.20;;;;;;6237164;23;20008;-85
2022/05/28 02:19:54;;;;;;;0.93;0.40;;;15.80;89.20;;;;;;6236847;23;20440;-82
2022/05/28 02:22:52;;;;;;;0.40;0.32;;;15.70;89.80;;;;;;6236618;23;20007;-81
2022/05/28 02:25:23;;;;;;;0.75;0.43;;;15.70;89.70;;;;;;6177097;23;20251;-83
2022/05/28 02:27:50;;;;;;;2.85;0.40;;;15.70;90.20;;;;;;6236115;23;20016;-83
2022/05/28 02:30:16;;;;;;;14.32;0.90;;;15.80;89.90;;;;;;6237790;23;20007;-85
2022/05/28 02:32:42;;;;;;;1.23;0.40;;;15.80;90.10;;;;;;6236502;23;20008;-84
2022/05/28 02:35:09;;;;;;;0.82;0.40;;;15.80;90.50;;;;;;6237022;23;20015;-85
2022/05/28 02:37:35;;;;;;;0.40;0.30;;;15.80;90.10;;;;;;6236503;23;20000;-74
2022/05/28 02:40:01;;;;;;;0.43;0.30;;;15.80;90.70;;;;;;6236022;23;20015;-83
2022/05/28 02:42:27;;;;;;;2.28;0.50;;;15.80;90.20;;;;;;6237375;23;20036;-85
2022/05/28 02:44:52;;;;;;;0.82;0.43;;;15.70;89.80;;;;;;6236798;23;20004;-86
2022/05/28 02:47:18;;;;;;;2.17;0.57;;;15.70;89.90;;;;;;6238042;23;20812;-85
2022/05/28 02:49:44;;;;;;;1.25;0.60;;;15.70;89.00;;;;;;6236787;23;20095;-85
2022/05/28 02:52:10;;;;;;;2.22;0.63;;;15.70;89.20;;;;;;6236003;23;20012;-86
2022/05/28 02:54:36;;;;;;;1.23;0.82;;;15.70;90.20;;;;;;6210942;23;20013;-86
2022/05/28 02:57:02;;;;;;;1.23;0.57;;;15.80;90.20;;;;;;6235529;23;20039;-86
2022/05/28 02:59:28;;;;;;;0.63;0.40;;;15.90;89.60;;;;;;6235114;23;20008;-86
2022/05/28 03:01:54;;;;;;;1.00;0.50;;;16.00;90.10;;;;;;6237025;23;20445;-86
2022/05/28 03:04:20;;;;;;;1.08;0.50;;;16.00;90.20;;;;;;6235827;23;20004;-86
2022/05/28 03:06:45;;;;;;;1.48;0.65;;;16.00;90.40;;;;;;6235599;23;20062;-85
2022/05/28 03:09:11;;;;;;;2.80;0.47;;;16.10;90.50;;;;;;6235715;23;20334;-85
2022/05/28 03:11:38;;;;;;;3.30;0.50;;;16.10;91.00;;;;;;6237441;23;20681;-86
2022/05/28 03:14:05;;;;;;;2.08;0.50;;;16.00;91.00;;;;;;6235398;23;20008;-85
2022/05/28 03:16:31;;;;;;;3.55;0.70;;;16.00;90.70;;;;;;6184878;23;20016;-85
2022/05/28 03:18:56;;;;;;;1.42;0.50;;;16.00;91.00;;;;;;6237331;23;20012;-85
2022/05/28 03:21:23;;;;;;;0.60;0.47;;;16.00;91.40;;;;;;6237653;23;20000;-86
2022/05/28 03:23:48;;;;;;;1.08;0.45;;;16.00;90.90;;;;;;6235871;23;20023;-86
2022/05/28 03:26:18;;;;;;;0.55;0.40;;;15.90;91.40;;;;;;6237265;23;20024;-86
2022/05/28 03:28:45;;;;;;;0.45;0.40;;;15.80;91.10;;;;;;6235797;23;20004;-85
2022/05/28 03:31:11;;;;;;;0.30;0.30;;;15.90;91.80;;;;;;6238113;23;20000;-85
2022/05/28 03:33:37;;;;;;;0.57;0.40;;;15.90;91.00;;;;;;6237661;23;20137;-84
2022/05/28 03:36:03;;;;;;;3.05;0.60;;;15.90;90.80;;;;;;6237230;23;20375;-84
2022/05/28 03:38:29;;;;;;;2.60;0.60;;;15.70;91.10;;;;;;6239773;23;20012;-84
2022/05/28 03:40:55;;;;;;;1.40;0.60;;;15.60;91.30;;;;;;6239240;23;20026;-85
2022/05/28 03:43:20;;;;;;;0.88;0.40;;;15.60;91.30;;;;;;6212005;23;20023;-84
2022/05/28 03:45:46;;;;;;;0.98;0.52;;;15.70;91.60;;;;;;6237410;23;20030;-85
2022/05/28 03:48:12;;;;;;;0.90;0.50;;;15.80;91.50;;;;;;6236822;23;20090;-84
2022/05/28 03:50:38;;;;;;;1.52;0.50;;;15.90;91.50;;;;;;6237613;23;19997;-85
2022/05/28 03:53:03;;;;;;;0.95;0.60;;;16.00;91.20;;;;;;6238436;23;20007;-85
2022/05/28 03:55:29;;;;;;;1.13;0.50;;;16.10;91.30;;;;;;6236876;23;20012;-84
2022/05/28 03:57:55;;;;;;;2.92;0.50;;;16.10;91.00;;;;;;6237931;23;20422;-83
2022/05/28 04:00:21;;;;;;;1.08;0.60;;;16.00;91.40;;;;;;6238502;23;20414;-87
2022/05/28 04:02:47;;;;;;;1.25;0.52;;;16.00;91.60;;;;;;6237684;23;20031;-82
2022/05/28 04:05:13;;;;;;;1.15;0.30;;;16.10;91.70;;;;;;6236668;23;20074;-82
2022/05/28 04:07:39;;;;;;;4.00;0.60;;;16.10;91.70;;;;;;6237470;23;20008;-81
2022/05/28 04:10:06;;;;;;;1.77;0.70;;;16.10;92.20;;;;;;6236712;23;20301;-81
2022/05/28 04:12:33;;;;;;;1.88;0.60;;;16.10;92.20;;;;;;6210767;23;20495;-81
2022/05/28 04:14:59;;;;;;;1.40;0.50;;;16.10;92.90;;;;;;6235434;23;20004;-81
2022/05/28 04:17:25;;;;;;;0.82;0.40;;;16.00;92.90;;;;;;6236544;23;20000;-81
2022/05/28 04:19:51;;;;;;;0.77;0.77;;;16.10;91.90;;;;;;6237611;23;19996;-80
2022/05/28 04:22:17;;;;;;;0.35;0.20;;;16.10;92.70;;;;;;6237077;23;20009;-81
2022/05/28 04:24:42;;;;;;;0.47;0.38;;;16.00;93.00;;;;;;6185714;23;20058;-86
2022/05/28 04:27:08;;;;;;;2.28;0.65;;;15.90;93.90;;;;;;6233582;23;20043;-73
2022/05/28 04:29:34;;;;;;;3.83;1.10;;;15.90;94.10;;;;;;6237164;23;20008;-80
2022/05/28 04:32:00;;;;;;;10.60;1.40;;;16.00;94.10;;;;;;6236855;23;20004;-80
2022/05/28 04:34:26;;;;;;;0.47;0.40;;;16.00;94.30;;;;;;6238241;23;20602;-81
2022/05/28 04:36:51;;;;;;;1.00;0.30;;;16.00;93.70;;;;;;6209184;23;20000;-82
2022/05/28 04:39:17;;;;;;;0.77;0.50;;;16.00;93.70;;;;;;6237785;23;20019;-80
2022/05/28 04:41:43;;;;;;;0.55;0.40;;;15.90;94.10;;;;;;6236038;23;20019;-80
2022/05/28 04:44:09;;;;;;;1.13;0.40;;;15.80;94.30;;;;;;6236709;23;20004;-80
2022/05/28 04:46:35;;;;;;;0.98;0.50;;;15.70;94.50;;;;;;6236771;23;20018;-81
2022/05/28 04:49:01;;;;;;;1.15;0.50;;;15.70;94.60;;;;;;6236401;23;20012;-80
2022/05/28 04:51:27;;;;;;;1.27;0.50;;;15.70;94.60;;;;;;6236491;23;20416;-81
2022/05/28 04:53:52;;;;;;;3.55;0.70;;;15.70;94.60;;;;;;6235863;23;20020;-81
2022/05/28 04:56:18;;;;;;;0.80;0.45;;;15.70;94.60;;;;;;6233410;23;20004;-80
2022/05/28 04:58:44;;;;;;;1.55;0.50;;;15.70;94.60;;;;;;6234838;23;20279;-80
2022/05/28 05:01:14;;;;;;;1.08;0.60;;;15.70;94.90;;;;;;6233603;23;20000;-80
2022/05/28 05:03:40;;;;;;;0.40;0.40;;;15.70;95.00;;;;;;6236946;23;20008;-81
2022/05/28 05:06:06;;;;;;;0.52;0.50;;;15.80;94.80;;;;;;6234612;23;20326;-80
2022/05/28 05:08:32;;;;;;;1.58;0.70;;;16.00;94.60;;;;;;6234682;23;20161;-80
2022/05/28 05:10:57;;;;;;;12.45;1.35;;;16.00;94.90;;;;;;6233859;23;20008;-81
2022/05/28 05:13:23;;;;;;;1.80;0.70;;;16.10;95.10;;;;;;6231466;23;20236;-80
2022/05/28 05:15:49;;;;;;;0.47;0.30;;;16.10;94.10;;;;;;6236341;23;20445;-80
2022/05/28 05:18:14;;;;;;;1.02;0.50;;;16.20;93.70;;;;;;6236721;23;20004;-79
2022/05/28 05:20:40;;;;;;;1.00;0.63;;;16.30;93.20;;;;;;6234393;23;20015;-79
2022/05/28 05:23:06;;;;;;;7.07;0.60;;;16.40;93.00;;;;;;6234789;23;20004;-79
2022/05/28 05:25:32;;;;;;;1.80;0.35;;;16.40;93.20;;;;;;6231374;23;20020;-79
2022/05/28 05:27:59;;;;;;;1.00;0.50;;;16.40;93.30;;;;;;6233918;23;20016;-81
2022/05/28 05:30:24;;;;;;;1.10;0.70;;;16.40;93.40;;;;;;6234225;23;20057;-81
2022/05/28 05:32:50;;;;;;;1.98;0.70;;;16.50;93.10;;;;;;6234868;23;20012;-80
2022/05/28 05:35:16;;;;;;;2.03;0.73;;;16.60;92.30;;;;;;6234259;23;20000;-80
2022/05/28 05:37:42;;;;;;;1.60;0.80;;;16.70;91.60;;;;;;6239056;23;20372;-80
2022/05/28 05:40:08;;;;;;;4.60;1.10;;;16.60;90.70;;;;;;6233625;23;20016;-82
2022/05/28 05:42:34;;;;;;;5.50;0.85;;;16.60;90.30;;;;;;6235845;23;20307;-80
2022/05/28 05:44:59;;;;;;;1.20;0.70;;;16.60;90.70;;;;;;6236344;23;20095;-81
2022/05/28 05:47:25;;;;;;;2.63;0.70;;;16.70;90.80;;;;;;6235310;23;20023;-81
2022/05/28 05:49:50;;;;;;;3.70;0.68;;;16.70;90.60;;;;;;6234895;23;20014;-80
2022/05/28 05:52:17;;;;;;;2.55;0.70;;;16.80;91.10;;;;;;6235320;23;20019;-81
2022/05/28 05:54:43;;;;;;;1.73;0.90;;;16.80;90.30;;;;;;6236332;23;20007;-81
2022/05/28 05:57:08;;;;;;;1.48;0.73;;;16.80;87.80;;;;;;6235005;23;20008;-80
2022/05/28 05:59:34;;;;;;;2.92;0.77;;;16.80;88.00;;;;;;6234710;23;20001;-82
2022/05/28 06:02:00;;;;;;;7.60;0.90;;;16.90;84.40;;;;;;6235245;23;20471;-80
2022/05/28 06:04:26;;;;;;;2.65;0.95;;;16.90;83.70;;;;;;6234593;23;19997;-82
2022/05/28 06:06:52;;;;;;;4.43;0.73;;;16.90;83.90;;;;;;6235037;23;20095;-80
2022/05/28 06:09:18;;;;;;;1.83;0.60;;;17.00;83.10;;;;;;6208246;23;20401;-82
2022/05/28 06:11:43;;;;;;;4.03;0.80;;;17.10;81.70;;;;;;6237839;23;20059;-80
2022/05/28 06:14:09;;;;;;;2.17;0.70;;;17.20;80.50;;;;;;6235184;23;20039;-80
2022/05/28 06:16:36;;;;;;;4.82;0.90;;;17.20;79.60;;;;;;6232298;23;20007;-80
2022/05/28 06:19:03;;;;;;;4.85;1.00;;;17.20;80.00;;;;;;6224559;23;20000;-79
2022/05/28 06:21:28;;;;;;;2.92;1.17;;;17.20;80.80;;;;;;6233009;23;20103;-80
2022/05/28 06:23:55;;;;;;;2.25;0.70;;;17.10;78.90;;;;;;6235013;23;20008;-80
2022/05/28 06:26:21;;;;;;;3.85;0.80;;;17.10;81.20;;;;;;6233867;23;20024;-77
2022/05/28 06:28:47;;;;;;;2.83;0.95;;;17.10;80.00;;;;;;6234540;23;20004;-80
2022/05/28 06:31:13;;;;;;;2.25;1.00;;;17.10;82.60;;;;;;6235493;23;20008;-76
2022/05/28 06:33:40;;;;;;;3.15;0.80;;;17.20;81.40;;;;;;6236040;23;20008;-76
2022/05/28 06:36:09;;;;;;;2.45;0.70;;;17.40;80.90;;;;;;6237094;23;20007;-78
2022/05/28 06:38:35;;;;;;;4.88;0.82;;;17.50;76.50;;;;;;6235625;23;20000;-80
2022/05/28 06:41:01;;;;;;;4.35;1.10;;;17.60;75.60;;;;;;6234996;23;20004;-75
2022/05/28 06:43:27;;;;;;;2.92;0.60;;;17.50;76.10;;;;;;6234393;23;20019;-76
2022/05/28 06:45:53;;;;;;;2.50;0.70;;;17.60;77.00;;;;;;6234665;23;20015;-77
2022/05/28 06:48:19;;;;;;;6.07;1.40;;;17.70;75.30;;;;;;6235804;23;20792;-77
2022/05/28 06:51:03;;;;;;;6.38;1.15;;;17.80;77.40;;;;;;6232485;23;20011;-76
2022/05/28 06:53:40;;;;;;;11.73;1.23;;;17.80;74.80;;;;;;6235843;23;20008;-79
2022/05/28 06:56:08;;;;;;;2.92;0.80;;;17.70;75.90;;;;;;6232497;23;20000;-76
2022/05/28 06:58:34;;;;;;;5.07;1.20;;;17.50;69.80;;;;;;6235011;23;20012;-75
2022/05/28 07:01:00;;;;;;;4.68;1.05;;;17.40;73.30;;;;;;6235351;23;20414;-75
2022/05/28 07:03:27;;;;;;;8.23;1.17;;;17.40;74.00;;;;;;6234135;23;20019;-75
2022/05/28 07:05:54;;;;;;;3.28;0.73;;;17.50;77.30;;;;;;6235286;23;20030;-77
2022/05/28 07:08:21;;;;;;;3.05;0.82;;;17.70;75.10;;;;;;6233802;23;20020;-76
2022/05/28 07:10:50;;;;;;;3.80;0.90;;;17.90;75.50;;;;;;6234818;23;20005;-75
2022/05/28 07:13:17;;;;;;;2.65;0.98;;;17.90;72.00;;;;;;6236432;23;20004;-76
2022/05/28 07:15:42;;;;;;;5.97;0.93;;;17.80;71.40;;;;;;6237893;23;20014;-73
2022/05/28 07:18:09;;;;;;;8.15;1.10;;;17.80;73.40;;;;;;6235182;23;20430;-73
2022/05/28 07:20:35;;;;;;;2.13;0.70;;;17.90;71.80;;;;;;6236186;23;20058;-75
2022/05/28 07:23:17;;;;;;;6.65;1.00;;;18.00;70.20;;;;;;6236381;23;20106;-77
2022/05/28 07:25:43;;;;;;;6.78;0.90;;;18.10;71.60;;;;;;6237153;23;20065;-74
2022/05/28 07:28:27;;;;;;;4.05;0.75;;;18.20;73.80;;;;;;6235325;23;20174;-76
2022/05/28 07:30:54;;;;;;;4.30;1.45;;;18.30;72.00;;;;;;6236811;23;20008;-75
2022/05/28 07:33:20;;;;;;;5.28;1.40;;;18.50;73.70;;;;;;6235693;23;20031;-76
2022/05/28 07:35:46;;;;;;;3.58;1.35;;;18.50;74.20;;;;;;6234746;23;20413;-77
2022/05/28 07:38:13;;;;;;;3.33;1.10;;;18.30;73.20;;;;;;6234806;23;20004;-79
2022/05/28 07:40:38;;;;;;;4.20;1.38;;;18.20;71.10;;;;;;6238371;23;20082;-77
2022/05/28 07:43:04;;;;;;;5.38;1.10;;;18.30;72.30;;;;;;6236208;23;20043;-77
2022/05/28 07:45:35;;;;;;;4.53;0.95;;;18.30;68.90;;;;;;6207368;23;20012;-72
2022/05/28 07:48:01;;;;;;;7.28;2.10;;;18.30;69.90;;;;;;6209687;23;20066;-74
2022/05/28 07:50:26;;;;;;;5.78;1.20;;;18.10;66.50;;;;;;6234473;23;20004;-75
2022/05/28 07:52:52;;;;;;;4.05;0.70;;;18.00;71.00;;;;;;6232002;23;20035;-75
2022/05/28 07:55:17;;;;;;;2.60;1.02;;;18.00;72.20;;;;;;6231140;23;20067;-77
2022/05/28 07:57:43;;;;;;;2.67;0.80;;;18.20;74.20;;;;;;6235004;23;20032;-76
2022/05/28 08:00:09;;;;;;;3.03;1.00;;;18.40;66.00;;;;;;6230307;23;20237;-77
2022/05/28 08:02:35;;;;;;;2.17;0.90;;;18.50;70.30;;;;;;6235647;23;20015;-77
2022/05/28 08:05:00;;;;;;;3.83;0.90;;;18.60;70.40;;;;;;6234753;23;20005;-75
2022/05/28 08:07:26;;;;;;;5.25;0.95;;;18.60;68.00;;;;;;6206657;23;20051;-81
2022/05/28 08:09:52;;;;;;;3.22;0.82;;;18.70;66.30;;;;;;6234315;23;20350;-80
2022/05/28 08:12:17;;;;;;;4.88;0.98;;;18.70;66.60;;;;;;6231836;23;20012;-77
2022/05/28 08:14:43;;;;;;;2.90;0.93;;;18.80;70.20;;;;;;6232565;23;20008;-75
2022/05/28 08:17:15;;;;;;;8.85;2.30;;;19.00;69.10;;;;;;6231996;23;20036;-75
2022/05/28 08:19:41;;;;;;;2.90;0.98;;;18.90;69.00;;;;;;6233452;23;20373;-76
2022/05/28 08:24:51;;;;;;;2.38;0.75;;;19.00;69.60;;;;;;6231254;23;20105;-78
2022/05/28 08:27:17;;;;;;;2.15;0.80;;;18.80;70.30;;;;;;6229522;23;20032;-80
2022/05/28 08:29:43;;;;;;;1.48;0.80;;;18.70;70.50;;;;;;6234429;23;20064;-75
2022/05/28 08:32:09;;;;;;;4.25;0.90;;;18.70;70.50;;;;;;6204946;23;20096;-75
2022/05/28 08:34:35;;;;;;;2.33;0.90;;;18.90;68.10;;;;;;6231104;23;20547;-83
2022/05/28 08:37:01;;;;;;;10.20;1.42;;;19.00;72.70;;;;;;6233014;23;19996;-79
2022/05/28 08:39:27;;;;;;;3.60;1.25;;;19.00;65.90;;;;;;6234442;23;20841;-77
2022/05/28 08:41:59;;;;;;;3.40;0.88;;;18.90;69.10;;;;;;6230519;23;20174;-76
2022/05/28 08:44:30;;;;;;;;;;;18.90;68.30;;;;;;6235690;23;20008;-72
2022/05/28 08:47:21;;;;;;;3.10;0.80;;;19.10;70.30;;;;;;6236091;23;19986;-76
2022/05/28 08:49:49;;;;;;;2.33;0.70;;;19.10;67.20;;;;;;6234132;23;20250;-74
2022/05/28 08:52:43;;;;;;;3.30;1.00;;;19.20;65.60;;;;;;6231591;23;20287;-77
2022/05/28 08:55:13;;;;;;;2.67;1.08;;;19.30;69.20;;;;;;6215780;23;20154;-75
2022/05/28 08:58:04;;;;;;;6.60;0.95;;;19.40;65.70;;;;;;6233057;23;20007;-75
2022/05/28 09:00:46;;;;;;;2.85;1.02;;;19.40;67.60;;;;;;6231110;23;20012;-74
2022/05/28 09:03:20;;;;;;;4.88;0.90;;;19.50;67.90;;;;;;6234458;23;20536;-72
2022/05/28 09:06:10;;;;;;;1.83;0.68;;;19.40;66.40;;;;;;6236731;23;20007;-72
2022/05/28 09:08:49;;;;;;;3.22;1.00;;;19.40;67.80;;;;;;6232421;23;20445;-73
2022/05/28 09:11:15;;;;;;;2.70;0.82;;;19.30;66.90;;;;;;6232404;23;20374;-74
2022/05/28 09:13:45;;;;;;;4.43;1.08;;;19.20;68.00;;;;;;6233891;23;20011;-74
2022/05/28 09:16:19;;;;;;;1.35;0.68;;;19.20;68.60;;;;;;6234327;23;20000;-71
2022/05/28 09:18:47;;;;;;;4.50;0.80;;;19.30;64.60;;;;;;6230989;23;20011;-74
2022/05/28 09:21:16;;;;;;;2.13;0.93;;;19.40;66.90;;;;;;6234295;23;20032;-76
2022/05/28 09:23:47;;;;;;;4.53;1.20;;;19.50;65.20;;;;;;6233456;23;20004;-75
2022/05/28 09:26:16;;;;;;;3.45;1.10;;;19.50;70.00;;;;;;6235974;23;20023;-74
2022/05/28 09:29:08;;;;;;;3.80;1.10;;;19.60;68.10;;;;;;6233737;23;20030;-74
2022/05/28 09:31:34;;;;;;;2.75;0.80;;;19.90;70.30;;;;;;6235640;23;20043;-75
2022/05/28 09:34:18;;;;;;;3.47;0.90;;;19.90;67.20;;;;;;6236001;23;20004;-73
2022/05/28 09:37:08;;;;;;;6.25;1.30;;;19.90;64.90;;;;;;6231725;23;20015;-74
2022/05/28 09:39:45;;;;;;;5.00;0.90;;;19.60;62.30;;;;;;6235762;23;20083;-73
2022/05/28 09:42:21;;;;;;;3.63;1.20;;;19.30;63.70;;;;;;6233670;23;20008;-76
2022/05/28 09:45:12;;;;;;;2.25;0.90;;;19.40;66.10;;;;;;6232513;23;20151;-76
2022/05/28 09:47:50;;;;;;;3.63;0.93;;;19.60;64.60;;;;;;6232763;23;20341;-77
2022/05/28 09:50:27;;;;;;;3.03;1.20;;;19.50;60.80;;;;;;6235018;23;20050;-74
2022/05/28 09:55:51;;;;;;;1.35;0.70;;;19.60;62.90;;;;;;6234873;23;20205;-81
2022/05/28 09:58:21;;;;;;;2.38;1.00;;;19.80;66.30;;;;;;6234826;23;20421;-78
2022/05/28 10:00:48;;;;;;;2.38;0.73;;;19.90;59.10;;;;;;6229654;23;20195;-76
2022/05/28 10:06:14;;;;;;;5.00;0.90;;;19.40;57.70;;;;;;6234584;23;20019;-73
2022/05/28 10:08:40;;;;;;;2.70;0.85;;;19.30;59.30;;;;;;6232800;23;20066;-74
2022/05/28 10:11:11;;;;;;;2.75;0.73;;;19.30;60.90;;;;;;6232063;23;20035;-77
2022/05/28 10:13:48;;;;;;;2.53;0.90;;;19.20;60.50;;;;;;6232074;23;20092;-81
2022/05/28 10:16:18;;;;;;;5.78;1.33;;;19.30;60.40;;;;;;6234578;23;20031;-75
2022/05/28 10:18:58;;;;;;;4.30;0.85;;;19.30;60.80;;;;;;6234690;23;20004;-79
2022/05/28 10:21:32;;;;;;;3.65;0.90;;;19.30;61.50;;;;;;6230383;22;20073;-77
2022/05/28 10:24:16;;;;;;;5.25;0.70;;;19.30;62.30;;;;;;6230864;23;20444;-73
2022/05/28 10:27:01;;;;;;;4.05;0.90;;;19.30;63.20;;;;;;6234913;23;20063;-77
2022/05/28 10:29:29;;;;;;;2.33;0.80;;;19.40;58.40;;;;;;6234872;23;20009;-77
2022/05/28 10:31:58;;;;;;;2.55;0.90;;;19.40;59.70;;;;;;6235641;23;20011;-77
2022/05/28 10:34:38;;;;;;;2.80;0.82;;;19.30;62.30;;;;;;6209053;23;20008;-74
2022/05/28 10:37:19;;;;;;;2.50;0.70;;;19.40;63.50;;;;;;6239377;23;20008;-75
2022/05/28 10:39:47;;;;;;;2.72;0.85;;;19.50;63.80;;;;;;6239853;23;20007;-78
2022/05/28 10:42:14;;;;;;;2.75;0.88;;;19.50;61.10;;;;;;6239822;23;20437;-78
2022/05/28 10:44:42;;;;;;;2.90;1.08;;;19.50;61.00;;;;;;6239181;23;20011;-74
2022/05/28 10:47:41;;;;;;;2.13;0.75;;;19.60;65.10;;;;;;6238428;23;20039;-75
2022/05/28 10:50:39;;;;;;;3.42;0.75;;;19.60;63.00;;;;;;6237042;23;20008;-74
2022/05/28 10:53:20;;;;;;;3.50;0.80;;;19.40;65.00;;;;;;6224763;23;20004;-83
2022/05/28 10:56:17;;;;;;;2.83;0.90;;;19.30;60.40;;;;;;6237063;23;20004;-86
2022/05/28 10:59:08;;;;;;;4.22;0.70;;;19.40;61.60;;;;;;6236275;23;20019;-76
2022/05/28 11:01:50;;;;;;;3.60;0.70;;;19.40;57.00;;;;;;6237035;23;20031;-77
2022/05/28 11:04:28;;;;;;;2.53;0.90;;;19.30;57.80;;;;;;6239236;23;20066;-79
2022/05/28 11:07:46;;;;;;;2.85;0.80;;;19.30;59.90;;;;;;6238216;23;20479;-76
2022/05/28 11:10:40;;;;;;;3.70;1.00;;;19.60;61.60;;;;;;6126220;23;20019;-77
2022/05/28 11:13:35;;;;;;;3.20;1.20;;;19.80;61.90;;;;;;6239174;23;20000;-81
2022/05/28 11:16:07;;;;;;;11.88;2.28;;;20.00;58.90;;;;;;6238304;23;20004;-83
2022/05/28 11:18:54;;;;;;;4.85;0.90;;;20.10;59.60;;;;;;6237449;23;20004;-82
2022/05/28 11:21:41;;;;;;;1.52;0.63;;;20.30;59.00;;;;;;6235618;23;19997;-76
2022/05/28 11:24:19;;;;;;;10.02;1.02;;;20.30;53.90;;;;;;6238097;23;20005;-76
2022/05/28 11:27:09;;;;;;;1.85;0.60;;;20.30;53.60;;;;;;6236201;23;20146;-76
2022/05/28 11:29:46;;;;;;;1.17;0.43;;;20.30;51.80;;;;;;6239669;23;20452;-75
2022/05/28 11:32:21;;;;;;;1.45;0.60;;;20.30;53.10;;;;;;6237538;23;20027;-76
2022/05/28 11:34:51;;;;;;;3.15;0.80;;;20.10;55.10;;;;;;6210423;23;20008;-81
2022/05/28 11:37:39;;;;;;;4.10;0.75;;;20.00;57.00;;;;;;6237054;23;20083;-79
2022/05/28 11:40:10;;;;;;;2.97;0.82;;;20.10;54.00;;;;;;6236190;23;20031;-73
2022/05/28 11:42:48;;;;;;;3.75;0.70;;;20.20;57.60;;;;;;6237833;23;20000;-75
2022/05/28 11:45:22;;;;;;;3.20;0.77;;;20.40;53.80;;;;;;6236423;23;20008;-77
2022/05/28 11:47:58;;;;;;;4.28;0.70;;;20.40;54.00;;;;;;6237276;23;20023;-74
2022/05/28 11:53:42;;;;;;;3.10;0.70;;;20.40;54.70;;;;;;6185833;23;20193;-75
2022/05/28 11:56:18;;;;;;;4.05;0.80;;;20.50;57.00;;;;;;6237369;23;20434;-74
2022/05/28 11:58:49;;;;;;;5.15;0.90;;;20.70;55.90;;;;;;6239083;23;20106;-80
2022/05/28 12:01:22;;;;;;;2.75;1.00;;;20.80;54.20;;;;;;6234928;23;20008;-80
2022/05/28 12:03:48;;;;;;;1.85;0.95;;;20.80;57.00;;;;;;6235812;23;20030;-74
2022/05/28 12:06:18;;;;;;;3.28;0.90;;;20.70;55.20;;;;;;6238436;23;20357;-76
2022/05/28 12:09:00;;;;;;;6.20;0.73;;;20.70;57.20;;;;;;6238295;23;20066;-77
2022/05/28 12:11:41;;;;;;;;;;;20.70;55.80;;;;;;6239198;23;20701;-73
2022/05/28 12:14:31;;;;;;;13.73;1.08;;;20.70;54.30;;;;;;6236914;23;20210;-75
2022/05/28 12:17:17;;;;;;;1.73;0.60;;;20.50;55.40;;;;;;6238420;23;19997;-75
2022/05/28 12:19:58;;;;;;;4.20;0.63;;;20.50;51.40;;;;;;6212670;22;20018;-80
2022/05/28 12:22:35;;;;;;;4.32;0.60;;;20.40;50.90;;;;;;6238120;23;20054;-79
2022/05/28 12:25:19;;;;;;;3.80;0.70;;;20.50;53.00;;;;;;6237005;23;20011;-78
2022/05/28 12:27:54;;;;;;;4.53;0.80;;;20.50;51.20;;;;;;6209930;23;20024;-74
2022/05/28 12:30:54;;;;;;;5.35;0.85;;;20.40;53.30;;;;;;6238004;23;20410;-73
2022/05/28 12:33:26;;;;;;;1.63;0.60;;;20.50;53.30;;;;;;6156334;22;20008;-74
2022/05/28 12:36:01;;;;;;;4.95;0.80;;;20.50;51.40;;;;;;6234795;22;20008;-74
2022/05/28 12:38:35;;;;;;;4.70;0.90;;;20.50;53.10;;;;;;6239217;22;20503;-74
2022/05/28 12:41:01;;;;;;;12.10;1.00;;;20.70;54.20;;;;;;6237699;23;20007;-76
2022/05/28 12:43:29;;;;;;;3.05;0.93;;;20.70;52.80;;;;;;6237773;23;20008;-74
2022/05/28 12:45:56;;;;;;;2.92;0.60;;;20.50;52.00;;;;;;6236791;23;20008;-74
2022/05/28 12:48:33;;;;;;;2.35;0.55;;;20.40;51.80;;;;;;6239340;23;20035;-73
2022/05/28 12:51:01;;;;;;;3.30;1.00;;;20.40;54.30;;;;;;6236040;23;20055;-76
2022/05/28 12:53:29;;;;;;;3.50;1.00;;;20.50;53.30;;;;;;6236355;23;20004;-73
2022/05/28 12:56:19;;;;;;;3.20;0.80;;;20.50;51.70;;;;;;6209001;23;20004;-80
2022/05/28 12:58:45;;;;;;;7.25;0.60;;;20.50;48.80;;;;;;6238656;23;20089;-77
2022/05/28 13:01:25;;;;;;;2.25;0.73;;;20.40;51.40;;;;;;6236707;23;20004;-79
2022/05/28 13:03:52;;;;;;;2.45;0.60;;;20.30;51.50;;;;;;6236391;23;20536;-83
2022/05/28 13:06:38;;;;;;;2.80;0.47;;;20.40;53.50;;;;;;6238408;23;20008;-81
2022/05/28 13:09:09;;;;;;;2.92;0.50;;;20.60;54.00;;;;;;6237251;23;20087;-82
2022/05/28 13:11:54;;;;;;;4.23;0.93;;;20.70;52.10;;;;;;6236706;23;20010;-78
2022/05/28 13:14:31;;;;;;;4.40;0.77;;;20.60;53.30;;;;;;6238125;23;20000;-77
2022/05/28 13:17:19;;;;;;;3.08;0.60;;;20.40;51.70;;;;;;6236884;23;20008;-81
2022/05/28 13:20:06;;;;;;;1.58;0.57;;;20.40;51.60;;;;;;6237444;23;20008;-86